Aviation Digital Data Service (ADDS)

Output produced by METARs form (1355 UTC 28 August 2016)
found at http://aviationweather.gov/adds/metars/
 
KPSM 281120Z 2812/2912 VRB03KT P6SM SCT070 SCT250 
     FM281700 14007KT P6SM SCT100 BKN250 
     FM290400 22006KT P6SM OVC100